HOURLY OBS INDEX

017

Northeast Pastoral

LEIGH CREEK AIRPORT

Site: 017110
Alt: 258.8m
111km SSE of MARREE


  Time     Wind        Temp  DP   Baro     Rain since   Rain past  Vis(m), Cloud(base in m), Weather
  local        km/h                         9am  last   hr   10m    
Thu 08:30  ESE  4/  7   4.8 -1.2  1028.4    0.0   0.0   0.0   0.0   ----- 
Thu 09:00  ESE  2/  7   7.4 -0.5  1028.6    0.0   0.0   0.0   0.0   ----- 
Thu 09:30  ESE  6/ 13  11.1 -0.7  1028.9    0.0   0.0   0.0   0.0   ----- 
Thu 10:00    E 15/ 17  12.2 -1.0  1028.9    0.0   0.0   0.0   0.0   ----- 
Thu 10:30    E 13/ 20  13.3 -2.2  1028.5    0.0   0.0   0.0   0.0   ----- 
Thu 11:00   NE  9/ 13  14.0 -2.8  1028.2    0.0   0.0   0.0   0.0   ----- 
Thu 11:30  NNE  9/ 19  15.3 -3.6  1027.9    0.0   0.0   0.0   0.0   ----- 
Thu 12:00   NE  9/ 17  16.0 -4.5  1027.4    0.0   0.0   0.0   0.0   ----- 
Thu 12:30  NNE 11/ 17  16.0 -5.1  1027.0    0.0   0.0   0.0   0.0   ----- 
Thu 13:00    N  6/  9  15.9 -5.2  1026.5    0.0   0.0   0.0   0.0   ----- 
Thu 13:30    N  6/ 15  16.9 -5.5  1026.3    0.0   0.0   0.0   0.0   ----- 

MARREE AERO

Site: 017126
Alt: 50.0m
1km SSE of MARREE


  Time     Wind        Temp  DP   Baro     Rain since   Rain past  Vis(m), Cloud(base in m), Weather
  local        km/h                         9am  last   hr   10m    
Thu 08:30   SE  9/ 11   4.1 -3.6  1029.0    0.0   0.0   0.0   0.0   ----- 
Thu 09:00  SSE 15/ 20   7.9 -1.3  1029.0    0.0   0.0   0.0   0.0   ----- 
Thu 09:30  SSE 17/ 19   9.3 -1.4  1029.3    0.0   0.0   0.0   0.0   ----- 
Thu 10:00   SE 15/ 19  10.5 -1.2  1029.4    0.0   0.0   0.0   0.0   ----- 
Thu 10:30   SE 13/ 17  12.8 -0.8  1029.2    0.0   0.0   0.0   0.0   ----- 
Thu 11:00   SE 11/ 15  14.3 -0.9  1029.0    0.0   0.0   0.0   0.0   ----- 
Thu 11:30    E 11/ 15  15.2 -0.9  1028.7    0.0   0.0   0.0   0.0   ----- 
Thu 12:00   SE 11/ 19  15.7 -1.4  1028.2    0.0   0.0   0.0   0.0   ----- 
Thu 12:30   SE 13/ 22  16.1 -1.9  1027.7    0.0   0.0   0.0   0.0   ----- 
Thu 13:00   SE 13/ 19  16.3 -2.7  1027.1    0.0   0.0   0.0   0.0   ----- 
Thu 13:30   SE  6/ 11  16.8 -3.9  1026.9    0.0   0.0   0.0   0.0   ----- 

MOOMBA AIRPORT

Site: 017123
Alt: 37.8m
66km SW of INNAMINCKA


  Time     Wind        Temp  DP   Baro     Rain since   Rain past  Vis(m), Cloud(base in m), Weather
  local        km/h                         9am  last   hr   10m    
Thu 08:30   SE  7/ 11   7.6 -4.5  1027.5    0.0   0.0   0.0   0.0   10000 
Thu 09:00   SE  9/ 15   9.3 -3.9  1027.7    0.0   0.0   0.0   0.0   10000 
Thu 09:30  ESE 15/ 20  11.4 -3.1  1027.7    0.0   0.0   0.0   0.0   10000 
Thu 10:00  ESE 15/ 20  13.4 -6.7  1027.6    0.0   0.0   0.0   0.0   10000 
Thu 10:30  ESE 15/ 19  14.8 -6.1  1027.4    0.0   0.0   0.0   0.0   10000 
Thu 11:00  ESE 15/ 19  15.4 -6.2  1027.1    0.0   0.0   0.0   0.0   10000 
Thu 11:30  ESE 15/ 22  16.4  1.3  1026.7    0.0   0.0   0.0   0.0   10000 
Thu 12:00  ESE 17/ 22  16.5  1.0  1026.3    0.0   0.0   0.0   0.0   10000 
Thu 12:30  ESE 13/ 20  17.6  1.2  1025.7    0.0   0.0   0.0   0.0   10000 
Thu 13:00   SE 13/ 20  18.0  0.2  1025.2    0.0   0.0   0.0   0.0   10000 
Thu 13:30  ESE 13/ 20  18.1  0.7  1024.7    0.0   0.0   0.0   0.0   10000 

OODNADATTA AIRPORT

Site: 017043
Alt: 116.5m
1km S of OODNADATTA


  Time     Wind        Temp  DP   Baro     Rain since   Rain past  Vis(m), Cloud(base in m), Weather
  local        km/h                         9am  last   hr   10m    
Thu 08:30    S  6/  7   6.9  2.4  1027.8    0.0   0.0   0.0   0.0   ----- 
Thu 09:00  SSW 11/ 13   8.4  3.3  1028.0    0.0   0.0   0.0   0.0   ----- 
Thu 09:30    S  7/ 11  10.2  3.5  1028.4    0.0   0.0   0.0   0.0   ----- 
Thu 10:00    S  4/  9  11.9  2.9  1028.6    0.0   0.0   0.0   0.0   ----- 
Thu 10:30    S  2/  7  13.6  1.3  1028.4    0.0   0.0   0.0   0.0   ----- 
Thu 11:00   SE  4/  7  14.4 -0.1  1028.1    0.0   0.0   0.0   0.0   ----- 
Thu 11:30    S  6/  9  15.2 -0.9  1027.8    0.0   0.0   0.0   0.0   ----- 
Thu 12:00    S  4/ 15  16.3 -1.7  1027.3    0.0   0.0   0.0   0.0   ----- 
Thu 12:30  ESE  7/ 17  16.5 -1.6  1026.8    0.0   0.0   0.0   0.0   ----- 
Thu 13:00  ESE 11/ 20  17.0 -1.1  1026.3    0.0   0.0   0.0   0.0   ----- 
Thu 13:30    S 15/ 20  16.9 -0.8  1025.7    0.0   0.0   0.0   0.0   -----